Time;durP1;ratioP1;P1;durP2;ratioP2;P2;SDS_P1;SDS_P2;PMS_P1;PMS_P2;Temp;Humidity;BMP_temperature;BMP_pressure;BME280_temperature;BME280_humidity;BME280_pressure;Samples;Min_cycle;Max_cycle;Signal;HPM_P1;HPM_P2
2023/08/03 00:00:20;;;;;;;3.90;2.97;;;;;;;;;;9868186;29;20146;-88
2023/08/03 00:05:13;;;;;;;4.38;3.38;;;;;;;;;;9872229;29;20108;-88
2023/08/03 00:10:05;;;;;;;4.40;3.42;;;;;;;;;;9870815;29;20130;-88
2023/08/03 00:14:57;;;;;;;5.85;3.25;;;;;;;;;;9861762;29;20059;-87
2023/08/03 00:19:49;;;;;;;7.35;4.18;;;;;;;;;;9869442;29;20102;-87
2023/08/03 00:24:41;;;;;;;4.38;3.33;;;;;;;;;;9869246;29;20044;-86
2023/08/03 00:29:33;;;;;;;7.00;3.35;;;;;;;;;;9866890;29;20102;-87
2023/08/03 00:34:25;;;;;;;4.55;3.45;;;;;;;;;;9858547;29;20126;-87
2023/08/03 00:39:17;;;;;;;5.53;4.18;;;;;;;;;;9865663;28;20544;-84
2023/08/03 00:44:09;;;;;;;4.15;3.20;;;;;;;;;;9868128;29;20051;-86
2023/08/03 00:49:01;;;;;;;6.75;2.70;;;;;;;;;;9870145;29;20040;-87
2023/08/03 00:53:53;;;;;;;5.55;2.78;;;;;;;;;;9868737;29;20102;-87
2023/08/03 00:58:45;;;;;;;8.63;3.00;;;;;;;;;;9866104;29;20043;-88
2023/08/03 01:03:37;;;;;;;3.40;2.70;;;;;;;;;;9865964;29;20036;-87
2023/08/03 01:08:29;;;;;;;3.15;2.88;;;;;;;;;;9868631;29;20051;-88
2023/08/03 01:13:22;;;;;;;3.15;2.35;;;;;;;;;;9867612;29;20150;-87
2023/08/03 01:18:14;;;;;;;2.90;2.28;;;;;;;;;;9831776;29;20072;-88
2023/08/03 01:23:06;;;;;;;4.03;2.35;;;;;;;;;;9840274;29;20055;-88
2023/08/03 01:27:58;;;;;;;6.28;2.15;;;;;;;;;;9869290;29;20126;-87
2023/08/03 01:32:50;;;;;;;2.67;2.38;;;;;;;;;;9868360;29;20055;-87
2023/08/03 01:37:42;;;;;;;3.63;2.78;;;;;;;;;;9868174;29;20103;-84
2023/08/03 01:42:34;;;;;;;3.95;2.67;;;;;;;;;;9869025;29;20043;-87
2023/08/03 01:47:26;;;;;;;4.55;2.70;;;;;;;;;;9866723;29;20044;-88
2023/08/03 01:52:17;;;;;;;4.03;2.30;;;;;;;;;;9872525;29;20355;-86
2023/08/03 01:57:09;;;;;;;5.30;2.28;;;;;;;;;;9875720;29;20052;-88
2023/08/03 02:02:01;;;;;;;4.55;2.15;;;;;;;;;;9872419;29;20388;-87
2023/08/03 02:06:56;;;;;;;3.28;2.30;;;;;;;;;;9874262;29;20373;-88
2023/08/03 02:11:48;;;;;;;2.40;2.20;;;;;;;;;;9874647;29;20050;-86
2023/08/03 02:16:40;;;;;;;2.35;2.15;;;;;;;;;;9875051;29;20407;-87
2023/08/03 02:21:32;;;;;;;2.95;2.42;;;;;;;;;;9889391;29;20102;-85
2023/08/03 02:26:24;;;;;;;4.38;2.28;;;;;;;;;;9877679;29;20044;-87
2023/08/03 02:31:16;;;;;;;2.58;2.38;;;;;;;;;;9872974;29;20048;-88
2023/08/03 02:36:12;;;;;;;2.25;2.05;;;;;;;;;;9870427;29;20039;-88
2023/08/03 02:41:06;;;;;;;2.20;2.00;;;;;;;;;;9873258;29;20047;-83
2023/08/03 02:45:58;;;;;;;3.13;2.80;;;;;;;;;;9871765;29;20047;-85
2023/08/03 02:50:51;;;;;;;5.75;3.22;;;;;;;;;;9871066;29;20043;-87
2023/08/03 02:55:43;;;;;;;5.88;3.80;;;;;;;;;;9871725;29;20127;-87
2023/08/03 03:00:35;;;;;;;9.20;5.45;;;;;;;;;;9872203;29;20131;-88
2023/08/03 03:05:27;;;;;;;4.40;2.78;;;;;;;;;;9876259;29;20071;-87
2023/08/03 03:10:19;;;;;;;6.68;2.70;;;;;;;;;;9879975;28;20044;-85
2023/08/03 03:15:11;;;;;;;5.00;2.55;;;;;;;;;;9871273;29;20435;-84
2023/08/03 03:20:05;;;;;;;5.47;2.40;;;;;;;;;;9871005;29;20106;-87
2023/08/03 03:24:57;;;;;;;3.55;2.78;;;;;;;;;;9872143;29;20055;-86
2023/08/03 03:29:49;;;;;;;3.22;2.78;;;;;;;;;;9863224;29;20040;-87
2023/08/03 03:34:42;;;;;;;4.25;3.15;;;;;;;;;;9842523;29;20044;-87
2023/08/03 03:39:37;;;;;;;7.90;2.55;;;;;;;;;;9871942;29;20486;-86
2023/08/03 03:44:34;;;;;;;4.13;2.88;;;;;;;;;;9870250;29;20039;-87
2023/08/03 03:49:26;;;;;;;3.90;2.40;;;;;;;;;;9869814;29;20043;-85
2023/08/03 03:54:18;;;;;;;2.90;2.70;;;;;;;;;;9870713;29;20047;-87
2023/08/03 03:59:12;;;;;;;4.07;2.60;;;;;;;;;;9885856;28;20043;-87
2023/08/03 04:04:04;;;;;;;11.82;3.05;;;;;;;;;;9869551;29;20074;-84
2023/08/03 04:08:57;;;;;;;5.32;3.22;;;;;;;;;;9869354;29;20398;-86
2023/08/03 04:13:49;;;;;;;3.58;2.88;;;;;;;;;;9865659;29;20052;-86
2023/08/03 04:18:40;;;;;;;7.15;3.35;;;;;;;;;;9843980;29;20075;-86
2023/08/03 04:23:32;;;;;;;5.45;3.67;;;;;;;;;;9884714;28;20061;-85
2023/08/03 04:28:28;;;;;;;10.82;4.05;;;;;;;;;;9871230;29;20497;-86
2023/08/03 04:33:21;;;;;;;4.68;3.03;;;;;;;;;;9863270;28;20048;-86
2023/08/03 04:38:21;;;;;;;4.40;3.42;;;;;;;;;;9869989;29;20484;-86
2023/08/03 04:43:17;;;;;;;6.63;3.85;;;;;;;;;;9871964;29;20043;-87
2023/08/03 04:48:09;;;;;;;10.13;4.38;;;;;;;;;;9869263;29;20488;-87
2023/08/03 04:53:01;;;;;;;4.72;3.80;;;;;;;;;;9871438;29;20051;-87
2023/08/03 04:57:54;;;;;;;7.22;4.05;;;;;;;;;;9886857;29;20044;-84
2023/08/03 05:02:48;;;;;;;12.27;5.55;;;;;;;;;;9867430;29;20079;-86
2023/08/03 05:07:40;;;;;;;4.85;3.67;;;;;;;;;;9883117;29;20047;-85
2023/08/03 05:12:32;;;;;;;8.57;3.35;;;;;;;;;;9867534;29;20048;-85
2023/08/03 05:17:24;;;;;;;11.07;3.70;;;;;;;;;;9869014;29;20083;-81
2023/08/03 05:22:16;;;;;;;3.83;3.28;;;;;;;;;;9870218;29;20044;-80
2023/08/03 05:27:10;;;;;;;7.63;3.45;;;;;;;;;;9885025;29;20079;-78
2023/08/03 05:32:02;;;;;;;6.82;4.20;;;;;;;;;;9868065;28;20110;-78
2023/08/03 05:36:54;;;;;;;7.13;3.90;;;;;;;;;;9866779;29;20044;-79
2023/08/03 05:41:46;;;;;;;5.93;4.30;;;;;;;;;;9868090;29;20157;-78
2023/08/03 05:46:38;;;;;;;6.30;3.70;;;;;;;;;;9867533;29;20505;-79
2023/08/03 05:51:30;;;;;;;7.50;3.95;;;;;;;;;;9869878;29;20463;-78
2023/08/03 05:56:23;;;;;;;6.47;3.45;;;;;;;;;;9869340;29;20593;-78
2023/08/03 06:01:20;;;;;;;17.15;4.32;;;;;;;;;;9868153;29;20131;-78
2023/08/03 06:06:15;;;;;;;4.88;3.50;;;;;;;;;;9867272;29;20055;-78
2023/08/03 06:11:08;;;;;;;3.50;3.00;;;;;;;;;;9868670;29;20075;-78
2023/08/03 06:16:04;;;;;;;8.65;3.38;;;;;;;;;;9865466;29;20070;-78
2023/08/03 06:20:56;;;;;;;11.65;4.32;;;;;;;;;;9866905;29;20051;-78
2023/08/03 06:25:49;;;;;;;7.25;3.25;;;;;;;;;;9865702;29;20043;-78
2023/08/03 06:30:42;;;;;;;3.05;2.75;;;;;;;;;;9870294;29;20561;-77
2023/08/03 06:35:39;;;;;;;11.55;5.70;;;;;;;;;;9865607;29;20055;-75
2023/08/03 06:40:32;;;;;;;12.45;4.85;;;;;;;;;;9872337;29;20075;-78
2023/08/03 06:45:24;;;;;;;12.38;4.82;;;;;;;;;;9874316;29;20090;-77
2023/08/03 06:50:16;;;;;;;9.40;4.43;;;;;;;;;;9899279;29;20046;-77
2023/08/03 06:55:08;;;;;;;8.98;4.68;;;;;;;;;;9895977;28;20044;-76
2023/08/03 07:00:00;;;;;;;11.80;4.68;;;;;;;;;;9870914;29;20062;-76
2023/08/03 07:04:52;;;;;;;14.65;4.72;;;;;;;;;;9871571;29;20102;-77
2023/08/03 07:09:50;;;;;;;8.40;3.78;;;;;;;;;;9873216;29;20546;-75
2023/08/03 07:14:42;;;;;;;7.50;3.67;;;;;;;;;;9872985;29;20055;-75
2023/08/03 07:19:33;;;;;;;3.65;2.28;;;;;;;;;;9871391;29;20632;-75
2023/08/03 07:24:28;;;;;;;3.90;2.33;;;;;;;;;;9870907;29;20437;-77
2023/08/03 07:29:20;;;;;;;6.40;2.60;;;;;;;;;;9865321;29;20083;-77
2023/08/03 07:34:12;;;;;;;12.25;4.38;;;;;;;;;;9843750;29;20044;-77
2023/08/03 07:39:04;;;;;;;12.95;4.80;;;;;;;;;;9868780;29;20435;-76
2023/08/03 07:43:55;;;;;;;10.75;3.55;;;;;;;;;;9870400;29;20106;-78
2023/08/03 07:48:47;;;;;;;15.45;4.63;;;;;;;;;;9871090;29;20044;-76
2023/08/03 07:53:39;;;;;;;13.35;4.60;;;;;;;;;;9871536;29;20050;-78
2023/08/03 07:58:31;;;;;;;13.30;4.13;;;;;;;;;;9872750;29;20094;-77
2023/08/03 08:03:23;;;;;;;15.02;4.85;;;;;;;;;;9868413;29;20058;-75
2023/08/03 08:08:14;;;;;;;7.57;3.05;;;;;;;;;;9868901;29;20426;-78
2023/08/03 08:13:06;;;;;;;9.48;3.58;;;;;;;;;;9880576;29;20105;-74
2023/08/03 08:17:58;;;;;;;5.38;3.30;;;;;;;;;;9866767;29;20426;-76
2023/08/03 08:22:50;;;;;;;9.80;3.35;;;;;;;;;;9869051;29;20055;-76
2023/08/03 08:27:42;;;;;;;4.20;2.72;;;;;;;;;;9869170;29;20385;-76
2023/08/03 08:32:35;;;;;;;5.80;2.58;;;;;;;;;;9868885;29;20048;-77
2023/08/03 08:37:29;;;;;;;2.42;2.03;;;;;;;;;;9867616;29;20426;-76
2023/08/03 08:42:21;;;;;;;3.17;2.33;;;;;;;;;;9869316;29;20123;-76
2023/08/03 08:47:13;;;;;;;5.38;2.47;;;;;;;;;;9870091;29;20047;-76
2023/08/03 08:52:06;;;;;;;6.95;2.72;;;;;;;;;;9871601;29;20091;-77
2023/08/03 08:56:58;;;;;;;4.10;2.25;;;;;;;;;;9869058;29;20056;-77
2023/08/03 09:01:54;;;;;;;8.52;2.45;;;;;;;;;;9866053;29;20051;-77
2023/08/03 09:06:46;;;;;;;5.53;1.95;;;;;;;;;;9859249;29;20103;-78
2023/08/03 09:11:41;;;;;;;1.95;1.58;;;;;;;;;;9864894;29;20062;-78
2023/08/03 09:16:34;;;;;;;4.57;2.42;;;;;;;;;;9849364;29;20048;-77
2023/08/03 09:21:26;;;;;;;12.00;3.70;;;;;;;;;;9858846;29;20063;-77
2023/08/03 09:26:24;;;;;;;7.93;3.55;;;;;;;;;;9847875;29;20048;-75
2023/08/03 09:31:28;;;;;;;9.02;3.20;;;;;;;;;;9864455;29;20078;-77
2023/08/03 09:36:21;;;;;;;8.95;2.65;;;;;;;;;;9865992;29;20082;-81
2023/08/03 09:41:31;;;;;;;5.10;2.88;;;;;;;;;;9867503;28;20142;-80
2023/08/03 09:46:46;;;;;;;7.85;3.58;;;;;;;;;;9868277;29;20043;-79
2023/08/03 09:51:40;;;;;;;8.00;3.05;;;;;;;;;;9867451;29;20051;-79
2023/08/03 09:56:54;;;;;;;5.35;3.72;;;;;;;;;;9860353;29;20040;-79
2023/08/03 10:01:49;;;;;;;9.07;3.50;;;;;;;;;;9864850;29;20138;-78
2023/08/03 10:06:44;;;;;;;8.05;3.10;;;;;;;;;;9866141;29;20047;-77
2023/08/03 10:11:43;;;;;;;3.08;2.08;;;;;;;;;;9875997;29;20552;-79
2023/08/03 10:16:40;;;;;;;2.22;1.83;;;;;;;;;;9885976;28;20051;-80
2023/08/03 10:21:34;;;;;;;5.93;1.67;;;;;;;;;;9871318;29;20139;-80
2023/08/03 10:26:26;;;;;;;2.72;1.80;;;;;;;;;;9876314;29;20055;-79
2023/08/03 10:31:19;;;;;;;1.80;1.70;;;;;;;;;;9873914;29;20039;-80
2023/08/03 10:36:31;;;;;;;3.55;1.67;;;;;;;;;;9874286;29;20055;-78
2023/08/03 10:41:28;;;;;;;2.28;1.70;;;;;;;;;;9874299;29;20066;-79
2023/08/03 10:46:39;;;;;;;3.97;1.88;;;;;;;;;;9854608;29;20047;-78
2023/08/03 10:51:32;;;;;;;3.58;1.77;;;;;;;;;;9872418;29;20095;-79
2023/08/03 10:56:23;;;;;;;2.35;1.65;;;;;;;;;;9873196;29;20108;-80
2023/08/03 11:01:22;;;;;;;4.18;1.80;;;;;;;;;;9856855;28;20040;-80
2023/08/03 11:06:16;;;;;;;5.35;1.50;;;;;;;;;;9889720;28;20047;-80
2023/08/03 11:11:16;;;;;;;1.65;1.55;;;;;;;;;;9909306;28;20544;-80
2023/08/03 11:16:08;;;;;;;4.32;1.63;;;;;;;;;;9908962;28;20673;-79
2023/08/03 11:21:00;;;;;;;2.70;1.80;;;;;;;;;;9909695;28;20154;-80
2023/08/03 11:25:52;;;;;;;2.90;1.70;;;;;;;;;;9910863;28;20051;-79
2023/08/03 11:30:45;;;;;;;2.20;1.80;;;;;;;;;;9907454;28;20047;-78
2023/08/03 11:35:37;;;;;;;1.95;1.55;;;;;;;;;;9898275;28;20713;-80
2023/08/03 11:40:29;;;;;;;3.65;1.92;;;;;;;;;;9899035;28;20079;-78
2023/08/03 11:45:22;;;;;;;3.42;2.22;;;;;;;;;;9910632;28;20051;-79
2023/08/03 11:50:17;;;;;;;9.43;2.63;;;;;;;;;;9910362;28;20074;-77
2023/08/03 11:55:34;;;;;;;3.67;1.80;;;;;;;;;;9909125;28;20043;-76
2023/08/03 12:00:26;;;;;;;5.75;2.13;;;;;;;;;;9906405;28;20043;-78
2023/08/03 12:05:18;;;;;;;4.82;2.25;;;;;;;;;;9908082;28;20062;-78
2023/08/03 12:10:12;;;;;;;4.70;2.00;;;;;;;;;;9913016;28;20126;-79
2023/08/03 12:15:09;;;;;;;2.15;1.88;;;;;;;;;;9908034;28;20440;-78
2023/08/03 12:20:01;;;;;;;4.53;2.13;;;;;;;;;;9907100;28;20429;-79
2023/08/03 12:24:53;;;;;;;2.67;2.28;;;;;;;;;;9901839;28;20101;-76
2023/08/03 12:29:45;;;;;;;2.80;2.28;;;;;;;;;;9890621;28;20058;-79
2023/08/03 12:34:36;;;;;;;3.15;2.63;;;;;;;;;;9908972;28;20110;-79
2023/08/03 12:39:29;;;;;;;5.85;2.72;;;;;;;;;;9906791;28;20102;-78
2023/08/03 12:44:21;;;;;;;7.38;2.00;;;;;;;;;;9908087;28;20051;-79
2023/08/03 12:49:13;;;;;;;6.00;2.97;;;;;;;;;;9907401;28;20155;-79
2023/08/03 12:54:05;;;;;;;2.92;2.60;;;;;;;;;;9906174;28;20379;-77
2023/08/03 12:58:57;;;;;;;4.32;2.60;;;;;;;;;;9906954;28;20133;-78
2023/08/03 13:03:49;;;;;;;8.98;2.67;;;;;;;;;;9904590;28;20071;-79
2023/08/03 13:08:41;;;;;;;4.68;2.38;;;;;;;;;;9902381;28;20130;-79
2023/08/03 13:13:33;;;;;;;3.33;2.10;;;;;;;;;;9903766;28;20085;-79
2023/08/03 13:18:26;;;;;;;4.20;2.40;;;;;;;;;;9903763;28;20047;-80
2023/08/03 13:23:18;;;;;;;6.20;2.35;;;;;;;;;;9905305;28;20047;-80
2023/08/03 13:28:10;;;;;;;6.32;3.00;;;;;;;;;;9905500;28;20047;-79
2023/08/03 13:33:01;;;;;;;4.05;2.13;;;;;;;;;;9906447;28;20142;-78
2023/08/03 13:37:53;;;;;;;4.05;2.00;;;;;;;;;;9907688;28;20050;-79
2023/08/03 13:42:45;;;;;;;2.63;2.38;;;;;;;;;;9907629;28;20050;-79
2023/08/03 13:47:37;;;;;;;2.58;1.90;;;;;;;;;;9911194;28;20405;-81
2023/08/03 13:52:29;;;;;;;6.20;2.67;;;;;;;;;;9912866;28;20118;-80
2023/08/03 13:57:21;;;;;;;2.67;2.10;;;;;;;;;;9914580;28;20473;-81
2023/08/03 14:02:16;;;;;;;6.75;2.35;;;;;;;;;;9913840;28;20130;-80
2023/08/03 14:07:08;;;;;;;5.38;3.50;;;;;;;;;;9911615;28;20138;-80
2023/08/03 14:12:03;;;;;;;3.47;2.22;;;;;;;;;;9910937;28;20043;-80
2023/08/03 14:16:56;;;;;;;3.42;2.78;;;;;;;;;;9906381;28;20074;-80
2023/08/03 14:21:48;;;;;;;4.57;2.17;;;;;;;;;;9903069;28;20051;-80
2023/08/03 14:26:45;;;;;;;3.88;3.10;;;;;;;;;;9910432;28;20583;-79
2023/08/03 14:31:37;;;;;;;4.45;2.35;;;;;;;;;;9910735;28;20051;-80
2023/08/03 14:36:29;;;;;;;3.58;2.25;;;;;;;;;;9910990;28;20051;-77
2023/08/03 14:41:25;;;;;;;4.57;3.05;;;;;;;;;;9908515;28;20055;-79
2023/08/03 14:46:18;;;;;;;3.05;2.20;;;;;;;;;;9905731;28;20040;-80
2023/08/03 14:51:10;;;;;;;2.28;1.98;;;;;;;;;;9880599;28;20114;-80
2023/08/03 14:56:05;;;;;;;6.63;2.97;;;;;;;;;;9877717;28;20737;-80
2023/08/03 15:01:09;;;;;;;4.47;3.10;;;;;;;;;;9906293;28;20047;-79
2023/08/03 15:06:13;;;;;;;3.72;2.58;;;;;;;;;;9907910;28;20051;-79
2023/08/03 15:11:05;;;;;;;3.70;2.83;;;;;;;;;;9908468;28;20466;-77
2023/08/03 15:16:10;;;;;;;10.32;4.13;;;;;;;;;;9905387;28;20074;-79
2023/08/03 15:21:20;;;;;;;3.83;2.65;;;;;;;;;;9907055;28;20055;-79
2023/08/03 15:26:14;;;;;;;6.88;2.92;;;;;;;;;;9906153;28;20085;-79
2023/08/03 15:31:10;;;;;;;3.42;2.13;;;;;;;;;;9886362;28;20043;-79
2023/08/03 15:36:05;;;;;;;3.50;2.60;;;;;;;;;;9906298;28;20048;-78
2023/08/03 15:40:59;;;;;;;9.03;3.50;;;;;;;;;;9908023;28;20437;-79
2023/08/03 15:45:58;;;;;;;5.65;2.58;;;;;;;;;;9890862;28;20098;-79
2023/08/03 15:50:55;;;;;;;4.40;2.40;;;;;;;;;;9891792;28;20124;-78
2023/08/03 15:55:58;;;;;;;2.97;2.38;;;;;;;;;;9900340;28;20543;-78
2023/08/03 16:00:52;;;;;;;5.75;2.40;;;;;;;;;;9894917;28;20099;-79
2023/08/03 16:05:45;;;;;;;17.02;2.67;;;;;;;;;;9905015;28;20537;-74
2023/08/03 16:10:37;;;;;;;4.07;2.17;;;;;;;;;;9898423;28;20130;-76
2023/08/03 16:15:30;;;;;;;4.82;2.40;;;;;;;;;;9907243;28;20414;-76
2023/08/03 16:20:22;;;;;;;4.60;2.60;;;;;;;;;;9906822;28;20079;-77
2023/08/03 16:25:14;;;;;;;3.08;2.53;;;;;;;;;;9907637;28;20070;-77
2023/08/03 16:30:06;;;;;;;7.10;2.60;;;;;;;;;;9932638;28;20065;-76
2023/08/03 16:34:58;;;;;;;3.90;2.83;;;;;;;;;;9906086;28;20050;-77
2023/08/03 16:39:55;;;;;;;5.20;2.20;;;;;;;;;;9906863;28;20059;-76
2023/08/03 16:44:47;;;;;;;5.38;2.67;;;;;;;;;;9904424;28;20394;-77
2023/08/03 16:49:41;;;;;;;3.33;2.67;;;;;;;;;;9904847;28;20055;-77
2023/08/03 16:54:33;;;;;;;4.47;2.80;;;;;;;;;;9904370;28;20054;-77
2023/08/03 16:59:26;;;;;;;4.07;2.75;;;;;;;;;;9904734;28;20393;-76
2023/08/03 17:04:17;;;;;;;4.15;2.60;;;;;;;;;;9925687;28;20109;-75
2023/08/03 17:09:09;;;;;;;2.75;2.53;;;;;;;;;;9929470;28;20055;-77
2023/08/03 17:14:01;;;;;;;5.15;3.17;;;;;;;;;;9914826;28;20382;-77
2023/08/03 17:18:53;;;;;;;5.00;2.70;;;;;;;;;;9910178;28;20051;-76
2023/08/03 17:23:45;;;;;;;5.45;3.15;;;;;;;;;;9902682;28;20093;-80
2023/08/03 17:28:37;;;;;;;6.20;2.50;;;;;;;;;;9904132;28;20090;-79
2023/08/03 17:33:31;;;;;;;3.88;2.45;;;;;;;;;;9903685;28;20058;-79
2023/08/03 17:38:23;;;;;;;6.35;4.38;;;;;;;;;;9900996;28;20081;-80
2023/08/03 17:43:15;;;;;;;4.10;3.03;;;;;;;;;;9901848;28;20381;-80
2023/08/03 17:48:07;;;;;;;5.78;3.17;;;;;;;;;;9901338;28;20057;-80
2023/08/03 17:52:59;;;;;;;4.07;3.00;;;;;;;;;;9903650;28;20047;-77
2023/08/03 17:57:51;;;;;;;4.85;2.95;;;;;;;;;;9903929;28;20039;-78
2023/08/03 18:02:45;;;;;;;4.30;2.78;;;;;;;;;;9911834;28;20057;-78
2023/08/03 18:07:38;;;;;;;3.85;3.10;;;;;;;;;;9913289;28;20051;-79
2023/08/03 18:12:31;;;;;;;5.70;3.22;;;;;;;;;;9899084;28;20785;-79
2023/08/03 18:17:22;;;;;;;4.05;2.88;;;;;;;;;;9893648;28;20070;-79
2023/08/03 18:22:16;;;;;;;5.47;3.40;;;;;;;;;;9896958;28;20074;-77
2023/08/03 18:27:08;;;;;;;4.93;2.80;;;;;;;;;;9897096;28;20052;-77
2023/08/03 18:32:00;;;;;;;11.48;3.15;;;;;;;;;;9900994;28;20334;-77
2023/08/03 18:36:52;;;;;;;3.42;3.00;;;;;;;;;;9910463;28;20063;-76
2023/08/03 18:41:44;;;;;;;4.35;3.05;;;;;;;;;;9909547;28;20050;-77
2023/08/03 18:46:36;;;;;;;5.60;3.00;;;;;;;;;;9919511;28;20051;-77
2023/08/03 18:51:27;;;;;;;3.75;2.70;;;;;;;;;;9908073;28;20074;-77
2023/08/03 18:56:24;;;;;;;5.60;2.65;;;;;;;;;;9907719;28;20047;-77
2023/08/03 19:01:16;;;;;;;5.83;2.93;;;;;;;;;;9912436;28;20047;-76
2023/08/03 19:06:13;;;;;;;4.20;2.78;;;;;;;;;;9909675;28;20047;-77
2023/08/03 19:11:05;;;;;;;3.83;3.47;;;;;;;;;;9896042;28;20458;-78
2023/08/03 19:16:00;;;;;;;8.43;3.70;;;;;;;;;;9902828;28;20517;-76
2023/08/03 19:20:52;;;;;;;5.53;3.00;;;;;;;;;;9906876;28;20129;-74
2023/08/03 19:25:45;;;;;;;5.32;3.50;;;;;;;;;;9910298;28;20115;-74
2023/08/03 19:30:39;;;;;;;8.18;2.30;;;;;;;;;;9912035;28;20499;-75
2023/08/03 19:35:35;;;;;;;4.80;3.17;;;;;;;;;;9911419;28;20581;-75
2023/08/03 19:40:26;;;;;;;8.35;3.22;;;;;;;;;;9910772;28;20058;-73
2023/08/03 19:45:23;;;;;;;4.07;3.10;;;;;;;;;;9895861;28;20047;-73
2023/08/03 19:50:15;;;;;;;5.53;2.67;;;;;;;;;;9907280;28;20051;-73
2023/08/03 19:55:10;;;;;;;4.63;3.50;;;;;;;;;;9913199;28;20098;-74
2023/08/03 20:00:20;;;;;;;4.13;2.85;;;;;;;;;;9913323;28;20039;-75
2023/08/03 20:05:18;;;;;;;4.43;3.00;;;;;;;;;;9911970;28;20046;-74
2023/08/03 20:10:12;;;;;;;;;;;;;;;;;;9912357;28;20043;-77
2023/08/03 20:15:06;;;;;;;4.88;2.92;;;;;;;;;;9909355;28;20388;-75
2023/08/03 20:20:00;;;;;;;6.65;3.10;;;;;;;;;;9902207;28;20458;-76
2023/08/03 20:24:53;;;;;;;6.25;3.63;;;;;;;;;;9912005;28;20145;-76
2023/08/03 20:29:45;;;;;;;6.43;3.50;;;;;;;;;;9911573;28;20543;-77
2023/08/03 20:34:50;;;;;;;5.25;3.42;;;;;;;;;;9882958;28;20106;-77
2023/08/03 20:39:42;;;;;;;6.50;3.30;;;;;;;;;;9897033;28;20449;-77
2023/08/03 20:44:34;;;;;;;7.38;4.10;;;;;;;;;;9910662;28;20059;-76
2023/08/03 20:49:30;;;;;;;4.72;3.13;;;;;;;;;;9910261;28;20059;-76
2023/08/03 20:54:22;;;;;;;4.28;3.33;;;;;;;;;;9908943;28;20367;-76
2023/08/03 20:59:17;;;;;;;4.13;3.28;;;;;;;;;;9910517;28;20051;-76
2023/08/03 21:04:09;;;;;;;5.03;3.28;;;;;;;;;;9909393;28;20051;-77
2023/08/03 21:09:01;;;;;;;6.20;2.95;;;;;;;;;;9892079;28;20094;-76
2023/08/03 21:13:53;;;;;;;5.25;4.00;;;;;;;;;;9910636;28;20035;-76
2023/08/03 21:18:45;;;;;;;6.75;3.67;;;;;;;;;;9908406;28;20051;-77
2023/08/03 21:23:41;;;;;;;7.28;3.60;;;;;;;;;;9907993;28;20058;-76
2023/08/03 21:28:33;;;;;;;5.90;3.72;;;;;;;;;;9905571;28;20039;-75
2023/08/03 21:33:28;;;;;;;6.47;3.13;;;;;;;;;;9903750;28;20453;-77
2023/08/03 21:38:20;;;;;;;7.05;4.00;;;;;;;;;;9905165;28;20071;-76
2023/08/03 21:43:12;;;;;;;3.67;3.10;;;;;;;;;;9907108;28;20049;-75
2023/08/03 21:48:04;;;;;;;5.53;3.58;;;;;;;;;;9908893;28;20054;-76
2023/08/03 21:52:56;;;;;;;6.28;3.10;;;;;;;;;;9908131;28;20493;-76
2023/08/03 21:57:48;;;;;;;4.20;2.80;;;;;;;;;;9909525;28;20086;-76
2023/08/03 22:02:40;;;;;;;5.20;4.03;;;;;;;;;;9908002;28;20111;-76
2023/08/03 22:07:32;;;;;;;6.15;3.33;;;;;;;;;;9910431;28;20457;-76
2023/08/03 22:12:25;;;;;;;8.07;3.55;;;;;;;;;;9916437;28;20054;-77
2023/08/03 22:17:19;;;;;;;7.53;3.75;;;;;;;;;;9917046;28;20141;-76
2023/08/03 22:22:11;;;;;;;4.18;3.00;;;;;;;;;;9915351;28;20377;-76
2023/08/03 22:27:03;;;;;;;4.47;2.90;;;;;;;;;;9915367;28;20434;-77
2023/08/03 22:31:55;;;;;;;4.68;3.25;;;;;;;;;;9915528;28;20371;-76
2023/08/03 22:36:47;;;;;;;5.15;2.45;;;;;;;;;;9915003;28;20358;-76
2023/08/03 22:41:39;;;;;;;4.82;2.72;;;;;;;;;;9913660;28;20430;-76
2023/08/03 22:46:31;;;;;;;5.75;2.75;;;;;;;;;;9912451;28;20053;-77
2023/08/03 22:51:23;;;;;;;6.18;2.58;;;;;;;;;;9913849;28;20078;-77
2023/08/03 22:56:17;;;;;;;5.28;2.58;;;;;;;;;;9912494;28;20062;-76
2023/08/03 23:01:20;;;;;;;4.43;3.15;;;;;;;;;;9902646;28;20043;-76
2023/08/03 23:06:17;;;;;;;2.47;1.95;;;;;;;;;;9873961;29;20063;-76
2023/08/03 23:11:10;;;;;;;3.47;2.37;;;;;;;;;;9880756;28;20047;-76
2023/08/03 23:16:02;;;;;;;2.45;2.08;;;;;;;;;;9912799;28;20135;-77
2023/08/03 23:21:01;;;;;;;3.20;1.90;;;;;;;;;;9891838;28;20419;-77
2023/08/03 23:26:07;;;;;;;2.53;2.00;;;;;;;;;;9907503;28;20051;-77
2023/08/03 23:30:59;;;;;;;4.30;2.85;;;;;;;;;;9911304;28;20544;-77
2023/08/03 23:35:51;;;;;;;3.33;2.50;;;;;;;;;;9914496;28;20102;-76
2023/08/03 23:40:43;;;;;;;3.72;1.98;;;;;;;;;;9901647;28;20064;-76
2023/08/03 23:45:35;;;;;;;2.25;2.05;;;;;;;;;;9873869;29;20398;-76
2023/08/03 23:50:27;;;;;;;2.38;2.10;;;;;;;;;;9891367;28;20080;-76
2023/08/03 23:55:19;;;;;;;4.22;2.50;;;;;;;;;;9909531;28;20047;-76
